Time;durP1;ratioP1;P1;durP2;ratioP2;P2;SDS_P1;SDS_P2;PMS_P1;PMS_P2;Temp;Humidity;BMP_temperature;BMP_pressure;BME280_temperature;BME280_humidity;BME280_pressure;Samples;Min_cycle;Max_cycle;Signal;HPM_P1;HPM_P2
2022/01/12 00:00:18;;;;;;;8.23;7.00;;;3.90;99.90;;;;;;5051900;28;20161;-77
2022/01/12 00:02:44;;;;;;;8.90;7.00;;;4.00;99.90;;;;;;5052214;28;20173;-77
2022/01/12 00:05:10;;;;;;;9.95;7.05;;;3.90;99.90;;;;;;5052172;28;20172;-77
2022/01/12 00:07:36;;;;;;;12.02;7.20;;;3.90;99.90;;;;;;5052016;28;20188;-77
2022/01/12 00:10:03;;;;;;;11.03;7.80;;;3.90;99.90;;;;;;5050473;28;20185;-77
2022/01/12 00:12:28;;;;;;;8.75;6.20;;;3.90;99.90;;;;;;5052746;28;20615;-77
2022/01/12 00:14:54;;;;;;;9.40;6.83;;;3.90;99.90;;;;;;5051959;28;20165;-77
2022/01/12 00:17:20;;;;;;;9.02;6.70;;;3.90;99.90;;;;;;5050866;28;20206;-77
2022/01/12 00:19:46;;;;;;;10.03;7.43;;;3.90;99.90;;;;;;5050668;28;20208;-77
2022/01/12 00:22:13;;;;;;;10.40;7.53;;;3.90;99.90;;;;;;5052033;28;20560;-77
2022/01/12 00:33:12;;;;;;;9.35;7.50;;;3.80;99.90;;;;;;5050647;28;20216;-77
2022/01/12 00:35:44;;;;;;;9.82;7.57;;;3.80;99.90;;;;;;5052020;28;20520;-77
2022/01/12 00:38:11;;;;;;;9.60;6.35;;;3.70;99.90;;;;;;5051856;28;20652;-77
2022/01/12 00:40:39;;;;;;;9.15;6.28;;;3.70;99.90;;;;;;5050268;28;20162;-77
2022/01/12 00:43:05;;;;;;;12.63;7.65;;;3.70;99.90;;;;;;5050333;28;20165;-77
2022/01/12 00:45:38;;;;;;;9.30;6.40;;;3.70;99.90;;;;;;5051740;28;20168;-77
2022/01/12 00:48:05;;;;;;;8.05;6.10;;;3.60;99.90;;;;;;5052228;28;20566;-77
2022/01/12 00:50:31;;;;;;;8.27;6.38;;;3.70;99.90;;;;;;5048866;28;20189;-77
2022/01/12 00:52:56;;;;;;;9.77;7.33;;;3.70;99.90;;;;;;5045321;28;20539;-77
2022/01/12 00:55:22;;;;;;;9.27;6.80;;;3.70;99.90;;;;;;5044565;28;20592;-78
2022/01/12 00:57:49;;;;;;;8.57;6.83;;;3.60;99.90;;;;;;5040266;28;20182;-76
2022/01/12 01:00:16;;;;;;;7.85;5.68;;;3.50;99.90;;;;;;5046398;28;20945;-77
2022/01/12 01:02:41;;;;;;;8.50;7.03;;;3.50;99.90;;;;;;5055345;28;20169;-76
2022/01/12 01:05:07;;;;;;;8.50;5.87;;;3.50;99.90;;;;;;5055429;28;20721;-77
2022/01/12 01:07:33;;;;;;;9.52;7.43;;;3.50;99.90;;;;;;5054282;28;20161;-76
2022/01/12 01:10:08;;;;;;;9.80;6.80;;;3.40;99.90;;;;;;5053707;28;20640;-76
2022/01/12 01:12:37;;;;;;;9.32;7.10;;;3.40;99.90;;;;;;5054151;28;20278;-77
2022/01/12 01:15:10;;;;;;;8.02;6.18;;;3.40;99.90;;;;;;5053779;28;20169;-76
2022/01/12 01:25:46;;;;;;;9.50;6.70;;;3.20;99.90;;;;;;5037756;28;20172;-77
2022/01/12 01:28:14;;;;;;;7.57;6.30;;;3.20;99.90;;;;;;5053850;28;20181;-77
2022/01/12 01:30:42;;;;;;;7.90;6.22;;;3.10;99.90;;;;;;5054935;28;20952;-77
2022/01/12 01:33:11;;;;;;;8.25;5.43;;;3.10;99.90;;;;;;5055152;28;20659;-77
2022/01/12 01:35:40;;;;;;;8.10;6.43;;;3.10;99.90;;;;;;5053752;28;20172;-77
2022/01/12 01:38:07;;;;;;;7.57;6.78;;;3.00;99.90;;;;;;5055193;28;20177;-78
2022/01/12 01:40:36;;;;;;;8.50;6.50;;;3.00;99.90;;;;;;5054697;28;20629;-77
2022/01/12 01:53:52;;;;;;;7.50;5.45;;;3.10;99.90;;;;;;5053723;28;20215;-77
2022/01/12 01:56:19;;;;;;;8.25;6.18;;;3.20;99.90;;;;;;5053687;28;20158;-77
2022/01/12 01:58:46;;;;;;;7.80;5.75;;;3.20;99.90;;;;;;5048872;28;20221;-76
2022/01/12 02:01:12;;;;;;;9.02;6.18;;;3.20;99.90;;;;;;5032997;28;20165;-76
2022/01/12 02:03:45;;;;;;;10.95;6.70;;;3.30;99.90;;;;;;5040717;28;20196;-76
2022/01/12 02:06:11;;;;;;;7.37;5.57;;;3.30;99.90;;;;;;5043314;28;20237;-77
2022/01/12 02:08:37;;;;;;;7.35;5.95;;;3.30;99.90;;;;;;5044825;28;20626;-76
2022/01/12 02:11:27;;;;;;;7.97;5.50;;;3.30;99.90;;;;;;5041649;28;20197;-76
2022/01/12 02:13:56;;;;;;;8.98;6.53;;;3.30;99.90;;;;;;5035976;28;20576;-77
2022/01/12 02:16:30;;;;;;;7.70;6.20;;;3.40;99.90;;;;;;5036174;28;20188;-77
2022/01/12 02:19:19;;;;;;;7.30;6.35;;;3.40;99.90;;;;;;5045318;28;20248;-76
2022/01/12 02:35:46;;;;;;;6.57;4.32;;;3.80;99.90;;;;;;5033232;28;20212;-77
2022/01/12 02:40:53;;;;;;;6.20;5.47;;;4.00;99.90;;;;;;5033087;28;20165;-76
2022/01/12 02:51:35;;;;;;;7.93;6.25;;;4.00;99.90;;;;;;4995060;28;20248;-76
2022/01/12 02:54:03;;;;;;;7.75;6.05;;;4.00;99.90;;;;;;5015876;28;20172;-76
2022/01/12 02:56:31;;;;;;;7.95;5.90;;;4.00;99.90;;;;;;5032408;28;20166;-77
2022/01/12 02:58:59;;;;;;;8.82;6.30;;;4.00;99.90;;;;;;5032281;28;20594;-76
2022/01/12 03:03:56;;;;;;;8.20;7.40;;;3.90;99.90;;;;;;5033404;28;20240;-77
2022/01/12 03:06:26;;;;;;;8.85;7.40;;;3.80;99.90;;;;;;5032249;28;20216;-76
2022/01/12 03:08:52;;;;;;;10.25;6.47;;;3.80;99.90;;;;;;5033171;28;20209;-76
2022/01/12 03:11:21;;;;;;;7.28;6.30;;;3.80;99.90;;;;;;5030968;28;20254;-76
2022/01/12 03:13:50;;;;;;;8.13;7.03;;;3.80;99.90;;;;;;5031949;28;20264;-76
2022/01/12 03:16:21;;;;;;;8.63;6.03;;;3.80;99.90;;;;;;5033855;28;20582;-76
2022/01/12 03:18:52;;;;;;;11.07;6.30;;;3.70;99.90;;;;;;5015663;28;20198;-76
2022/01/12 03:21:22;;;;;;;9.50;6.70;;;3.80;99.90;;;;;;5015146;28;20177;-76
2022/01/12 03:23:49;;;;;;;6.93;5.85;;;3.80;99.90;;;;;;5031356;28;20239;-77
2022/01/12 03:26:15;;;;;;;7.70;5.22;;;3.80;99.90;;;;;;5033075;28;20214;-77
2022/01/12 03:28:43;;;;;;;7.20;5.57;;;3.80;99.90;;;;;;5032855;28;20237;-77
2022/01/12 03:31:20;;;;;;;6.90;5.03;;;3.80;99.90;;;;;;5038709;28;20212;-77
2022/01/12 03:36:28;;;;;;;5.70;4.20;;;3.80;99.90;;;;;;5041934;28;20620;-77
2022/01/12 03:39:00;;;;;;;5.32;4.82;;;3.80;99.90;;;;;;5023085;28;20197;-77
2022/01/12 03:41:29;;;;;;;6.53;5.75;;;3.80;99.90;;;;;;5047082;28;20188;-77
2022/01/12 03:43:58;;;;;;;7.10;6.40;;;3.80;99.90;;;;;;5045064;28;20177;-77
2022/01/12 03:46:33;;;;;;;8.82;6.20;;;3.70;99.90;;;;;;5051245;28;20165;-77
2022/01/12 03:48:59;;;;;;;7.78;5.55;;;3.60;99.90;;;;;;5051331;28;20185;-77
2022/01/12 03:51:25;;;;;;;8.00;5.50;;;3.60;99.90;;;;;;5050739;28;20209;-77
2022/01/12 03:53:51;;;;;;;9.10;6.95;;;3.60;99.90;;;;;;5053161;28;20219;-77
2022/01/12 03:56:17;;;;;;;8.75;6.05;;;3.50;99.90;;;;;;5052576;28;20160;-77
2022/01/12 03:58:43;;;;;;;8.47;6.23;;;3.50;99.90;;;;;;5051061;28;20211;-77
2022/01/12 04:01:09;;;;;;;7.90;6.37;;;3.40;99.90;;;;;;5050622;28;20575;-77
2022/01/12 04:03:42;;;;;;;9.38;6.50;;;3.40;99.90;;;;;;5052090;28;20220;-77
2022/01/12 04:08:53;;;;;;;7.25;6.55;;;3.40;99.90;;;;;;5050795;28;20185;-77
2022/01/12 04:11:19;;;;;;;6.60;5.70;;;3.40;99.90;;;;;;5051759;28;20333;-77
2022/01/12 04:13:48;;;;;;;7.70;5.20;;;3.50;99.90;;;;;;5034102;28;20176;-77
2022/01/12 04:16:15;;;;;;;8.80;6.30;;;3.50;99.90;;;;;;5050928;28;20511;-76
2022/01/12 04:18:41;;;;;;;6.53;5.40;;;3.50;99.90;;;;;;5040500;28;20189;-76
2022/01/12 04:21:09;;;;;;;7.00;5.72;;;3.60;99.90;;;;;;5039841;28;20220;-76
2022/01/12 04:23:37;;;;;;;7.93;6.10;;;3.60;99.90;;;;;;5046168;28;20270;-77
2022/01/12 04:26:10;;;;;;;9.10;6.60;;;3.60;99.90;;;;;;5042115;28;20179;-77
2022/01/12 04:28:40;;;;;;;7.40;5.88;;;3.70;99.90;;;;;;5051740;28;20610;-77
2022/01/12 04:31:07;;;;;;;6.55;4.95;;;3.70;99.90;;;;;;5050691;28;20573;-77
2022/01/12 04:33:35;;;;;;;7.57;5.55;;;3.80;99.90;;;;;;5034141;28;20587;-77
2022/01/12 04:36:02;;;;;;;7.78;6.60;;;3.90;99.90;;;;;;5049911;28;20168;-77
2022/01/12 04:38:33;;;;;;;8.90;6.53;;;3.90;99.90;;;;;;5051602;28;20217;-77
2022/01/12 04:41:05;;;;;;;7.00;6.30;;;3.90;99.90;;;;;;5050038;28;20177;-76
2022/01/12 04:43:32;;;;;;;7.30;6.13;;;3.90;99.90;;;;;;5050580;28;20264;-77
2022/01/12 04:46:21;;;;;;;8.45;6.25;;;3.90;99.90;;;;;;5050474;28;20164;-77
2022/01/12 04:49:19;;;;;;;7.70;6.10;;;4.00;99.90;;;;;;5050258;28;20200;-77
2022/01/12 04:51:43;;;;;;;7.30;5.95;;;4.00;99.90;;;;;;5049766;28;20209;-76
2022/01/12 04:54:09;;;;;;;10.55;7.28;;;4.10;99.90;;;;;;5033828;28;20196;-76
2022/01/12 04:56:35;;;;;;;8.13;6.33;;;4.10;99.90;;;;;;5050277;28;20208;-78
2022/01/12 04:59:02;;;;;;;7.80;6.47;;;4.10;99.90;;;;;;5050221;28;20207;-77
2022/01/12 05:01:35;;;;;;;7.70;6.72;;;4.10;99.90;;;;;;5049957;28;20184;-78
2022/01/12 05:06:58;;;;;;;6.68;5.90;;;4.10;99.90;;;;;;5033454;28;20181;-77
2022/01/12 05:14:54;;;;;;;9.85;6.38;;;4.20;99.90;;;;;;5050215;28;20218;-77
2022/01/12 05:17:20;;;;;;;7.50;6.00;;;4.20;99.90;;;;;;5033630;28;20165;-77
2022/01/12 05:19:46;;;;;;;5.67;5.10;;;4.20;99.90;;;;;;5033012;28;20199;-77
2022/01/12 05:22:12;;;;;;;8.00;5.70;;;4.20;99.90;;;;;;5049946;28;21119;-77
2022/01/12 05:24:38;;;;;;;7.53;5.53;;;4.20;99.90;;;;;;5049904;28;20218;-78
2022/01/12 05:27:04;;;;;;;6.17;5.50;;;4.20;99.90;;;;;;5051314;28;20177;-77
2022/01/12 05:29:29;;;;;;;6.25;5.07;;;4.30;99.90;;;;;;5049715;28;20197;-76
2022/01/12 05:31:55;;;;;;;8.70;6.57;;;4.40;99.90;;;;;;5029771;28;20202;-76
2022/01/12 05:34:21;;;;;;;5.57;5.00;;;4.50;99.90;;;;;;5030186;28;20169;-77
2022/01/12 05:36:47;;;;;;;9.20;5.90;;;4.50;99.90;;;;;;5029934;28;20277;-78
2022/01/12 05:39:13;;;;;;;6.85;5.78;;;4.50;99.90;;;;;;5030999;28;20618;-76
2022/01/12 05:41:39;;;;;;;8.03;5.87;;;4.60;99.90;;;;;;5029279;28;20185;-77
2022/01/12 05:44:07;;;;;;;7.90;6.23;;;4.60;99.90;;;;;;5013275;28;20630;-76
2022/01/12 05:46:33;;;;;;;6.90;5.00;;;4.60;99.90;;;;;;5030761;28;20209;-77
2022/01/12 05:51:52;;;;;;;6.45;5.65;;;4.50;99.90;;;;;;5033086;28;20201;-78
2022/01/12 05:54:18;;;;;;;7.90;5.00;;;4.60;99.90;;;;;;5033564;28;20166;-77
2022/01/12 05:56:44;;;;;;;7.85;5.38;;;4.60;99.90;;;;;;5034345;28;21130;-78
2022/01/12 05:59:10;;;;;;;6.17;5.40;;;4.60;99.90;;;;;;5034731;28;20272;-77
2022/01/12 06:01:36;;;;;;;8.87;6.00;;;4.60;99.90;;;;;;5032742;28;20683;-76
2022/01/12 06:04:01;;;;;;;7.20;6.13;;;4.60;99.90;;;;;;5016923;28;20638;-76
2022/01/12 06:06:27;;;;;;;7.40;6.50;;;4.50;99.90;;;;;;5015571;28;20584;-77
2022/01/12 06:08:53;;;;;;;7.43;6.00;;;4.60;99.90;;;;;;5034537;28;20229;-76
2022/01/12 06:11:19;;;;;;;7.55;5.40;;;4.60;99.90;;;;;;5033565;28;20615;-76
2022/01/12 06:13:47;;;;;;;7.10;5.53;;;4.60;99.90;;;;;;5017226;28;20170;-76
2022/01/12 06:16:13;;;;;;;7.50;5.70;;;4.60;99.90;;;;;;5033617;28;20176;-76
2022/01/12 06:18:42;;;;;;;6.63;5.25;;;4.60;99.90;;;;;;5033580;28;20431;-76
2022/01/12 06:21:09;;;;;;;9.98;5.30;;;4.70;99.90;;;;;;5033086;28;20520;-77
2022/01/12 06:23:54;;;;;;;7.03;5.32;;;4.70;99.90;;;;;;5033316;28;20173;-77
2022/01/12 06:26:24;;;;;;;6.25;5.25;;;4.70;99.90;;;;;;5033192;28;20177;-77
2022/01/12 06:29:14;;;;;;;7.35;6.57;;;4.70;99.90;;;;;;5033909;28;20201;-77
2022/01/12 06:31:44;;;;;;;6.72;5.50;;;4.70;99.90;;;;;;5032221;28;20236;-77
2022/01/12 06:34:10;;;;;;;7.03;6.15;;;4.70;99.90;;;;;;5033011;28;20189;-76
2022/01/12 06:36:36;;;;;;;7.03;6.20;;;4.70;99.90;;;;;;5033074;28;20205;-76
2022/01/12 06:39:07;;;;;;;6.35;5.65;;;4.70;99.90;;;;;;5016719;28;20608;-76
2022/01/12 06:41:33;;;;;;;9.30;5.93;;;4.70;99.90;;;;;;5032808;28;20204;-77
2022/01/12 06:44:00;;;;;;;6.90;5.25;;;4.70;99.90;;;;;;5047491;28;20181;-76
2022/01/12 06:46:29;;;;;;;9.68;4.93;;;4.70;99.90;;;;;;5053008;28;20290;-76
2022/01/12 06:48:55;;;;;;;8.52;6.35;;;4.70;99.90;;;;;;5021292;28;20326;-76
2022/01/12 06:51:22;;;;;;;8.43;6.32;;;4.70;99.90;;;;;;5026860;28;20588;-76
2022/01/12 06:53:53;;;;;;;8.93;7.28;;;4.60;99.90;;;;;;5052385;28;20193;-76
2022/01/12 06:56:19;;;;;;;7.28;6.00;;;4.60;99.90;;;;;;5052556;28;20223;-75
2022/01/12 06:58:50;;;;;;;6.88;6.18;;;4.60;99.90;;;;;;5054164;28;20188;-76
2022/01/12 07:01:17;;;;;;;8.63;6.60;;;4.50;99.90;;;;;;5052551;28;20177;-76
2022/01/12 07:03:45;;;;;;;11.25;6.80;;;4.40;99.90;;;;;;5035675;28;20173;-76
2022/01/12 07:06:11;;;;;;;6.17;5.43;;;4.40;99.90;;;;;;5052313;28;20518;-76
2022/01/12 07:08:39;;;;;;;11.27;6.45;;;4.30;99.90;;;;;;5051622;28;20189;-75
2022/01/12 07:11:07;;;;;;;7.32;6.60;;;4.30;99.90;;;;;;5051210;28;20554;-75
2022/01/12 07:13:33;;;;;;;9.75;7.05;;;4.30;99.90;;;;;;5051822;28;20169;-75
2022/01/12 07:15:59;;;;;;;6.13;5.50;;;4.20;99.90;;;;;;5051852;28;20165;-75
2022/01/12 07:18:26;;;;;;;6.63;5.50;;;4.20;99.90;;;;;;5035062;28;20193;-75
2022/01/12 07:20:52;;;;;;;7.75;6.82;;;4.20;99.90;;;;;;5045490;28;20588;-76
2022/01/12 07:23:18;;;;;;;7.63;6.70;;;4.30;99.90;;;;;;5032823;28;20162;-74
2022/01/12 07:25:43;;;;;;;8.10;5.27;;;4.30;99.90;;;;;;5032677;28;20162;-75
2022/01/12 07:28:09;;;;;;;12.23;6.07;;;4.40;99.90;;;;;;5031132;28;20194;-76
2022/01/12 07:30:35;;;;;;;10.33;6.70;;;4.50;99.90;;;;;;5031127;28;20695;-75
2022/01/12 07:33:01;;;;;;;7.33;5.30;;;4.50;99.90;;;;;;5031570;28;20176;-76
2022/01/12 07:35:27;;;;;;;6.97;5.77;;;4.50;99.90;;;;;;5032927;28;21103;-76
2022/01/12 07:37:53;;;;;;;5.83;5.20;;;4.60;99.90;;;;;;5036780;28;20549;-76
2022/01/12 07:40:19;;;;;;;6.40;5.80;;;4.70;99.90;;;;;;5032300;28;20569;-77
2022/01/12 07:42:45;;;;;;;8.00;6.37;;;4.80;99.90;;;;;;5031803;28;20260;-77
2022/01/12 07:45:13;;;;;;;8.85;5.80;;;4.80;99.90;;;;;;5031056;28;20177;-77
2022/01/12 07:47:39;;;;;;;7.10;5.50;;;5.00;99.90;;;;;;5032552;28;20173;-77
2022/01/12 07:50:07;;;;;;;7.60;5.60;;;5.00;99.90;;;;;;5032009;28;20827;-77
2022/01/12 07:52:33;;;;;;;7.35;6.32;;;5.10;99.90;;;;;;5032241;28;20201;-76
2022/01/12 07:54:59;;;;;;;6.82;6.13;;;5.10;99.90;;;;;;5029541;28;20178;-77
2022/01/12 07:57:27;;;;;;;8.07;6.65;;;5.10;99.90;;;;;;5030691;28;20564;-76
2022/01/12 07:59:53;;;;;;;8.52;6.78;;;5.20;99.90;;;;;;5031872;28;20185;-76
2022/01/12 08:02:19;;;;;;;7.53;5.40;;;5.20;99.90;;;;;;5032205;28;20185;-76
2022/01/12 08:04:45;;;;;;;9.00;6.35;;;5.20;99.90;;;;;;5032350;28;20170;-76
2022/01/12 08:07:11;;;;;;;8.07;7.23;;;5.20;99.90;;;;;;5032359;28;20188;-77
2022/01/12 08:09:39;;;;;;;8.45;7.15;;;5.10;99.90;;;;;;5032007;28;20198;-77
2022/01/12 08:12:05;;;;;;;7.30;6.05;;;5.10;99.90;;;;;;5030573;28;20228;-76
2022/01/12 08:14:31;;;;;;;6.47;5.40;;;5.10;99.90;;;;;;5034853;28;20166;-77
2022/01/12 08:16:57;;;;;;;6.80;5.60;;;5.20;99.90;;;;;;5031791;28;20281;-76
2022/01/12 08:19:24;;;;;;;8.60;6.47;;;5.20;99.90;;;;;;5032050;28;20186;-76
2022/01/12 08:21:50;;;;;;;6.05;5.45;;;5.30;99.90;;;;;;5031643;28;20180;-76
2022/01/12 08:24:16;;;;;;;6.40;5.77;;;5.30;99.90;;;;;;5031882;28;20177;-76
2022/01/12 08:26:42;;;;;;;6.47;5.72;;;5.40;99.90;;;;;;5031903;28;20898;-77
2022/01/12 08:29:10;;;;;;;7.10;5.40;;;5.40;99.90;;;;;;5031438;28;20209;-76
2022/01/12 08:31:36;;;;;;;7.80;6.28;;;5.40;99.90;;;;;;5031519;28;20211;-76
2022/01/12 08:34:03;;;;;;;7.00;6.13;;;5.50;99.90;;;;;;5031672;28;20576;-77
2022/01/12 08:36:29;;;;;;;8.48;6.10;;;5.40;99.90;;;;;;5031745;28;20565;-77
2022/01/12 08:38:55;;;;;;;7.90;7.10;;;5.40;99.90;;;;;;5031602;28;20258;-77
2022/01/12 08:41:22;;;;;;;8.52;7.10;;;5.40;99.90;;;;;;5035003;28;20170;-75
2022/01/12 08:43:48;;;;;;;11.05;7.70;;;5.40;99.90;;;;;;5033883;28;20178;-75
2022/01/12 08:46:14;;;;;;;7.05;6.00;;;5.40;99.90;;;;;;5036785;28;20718;-75
2022/01/12 08:48:39;;;;;;;9.20;7.17;;;5.40;99.90;;;;;;5037845;28;20269;-76
2022/01/12 08:51:05;;;;;;;7.57;6.30;;;5.40;99.90;;;;;;5041087;28;20618;-75
2022/01/12 08:53:31;;;;;;;8.00;6.60;;;5.40;99.90;;;;;;5038960;28;20316;-74
2022/01/12 08:55:57;;;;;;;8.73;7.10;;;5.30;99.90;;;;;;5031405;28;20583;-75
2022/01/12 08:58:22;;;;;;;8.07;6.43;;;5.30;99.90;;;;;;5031982;28;20186;-75
2022/01/12 09:00:48;;;;;;;6.70;5.77;;;5.30;99.90;;;;;;5031346;28;20169;-75
2022/01/12 09:03:14;;;;;;;8.63;7.10;;;5.20;99.90;;;;;;5031675;28;20188;-75
2022/01/12 09:05:40;;;;;;;8.93;6.80;;;5.20;99.90;;;;;;5030813;28;20584;-75
2022/01/12 09:08:06;;;;;;;9.63;7.20;;;5.20;99.90;;;;;;5031760;28;20169;-74
2022/01/12 09:10:33;;;;;;;8.55;7.32;;;5.20;99.90;;;;;;5031162;28;20671;-74
2022/01/12 09:12:59;;;;;;;6.93;6.22;;;5.30;99.90;;;;;;5031606;28;20176;-74
2022/01/12 09:15:25;;;;;;;5.50;5.00;;;5.30;99.90;;;;;;5029809;28;20166;-74
2022/01/12 09:17:54;;;;;;;9.15;6.35;;;5.30;99.90;;;;;;5030691;28;20300;-74
2022/01/12 09:20:21;;;;;;;7.22;5.97;;;5.40;99.90;;;;;;5029868;28;20181;-74
2022/01/12 09:22:47;;;;;;;6.72;6.00;;;5.50;99.90;;;;;;5032410;28;20170;-74
2022/01/12 09:25:13;;;;;;;8.15;7.13;;;5.60;99.90;;;;;;5017754;28;20173;-73
2022/01/12 09:27:40;;;;;;;7.57;6.68;;;5.70;99.90;;;;;;5039488;28;20177;-74
2022/01/12 09:30:09;;;;;;;6.03;5.28;;;5.80;99.90;;;;;;5032926;28;20216;-74
2022/01/12 09:32:35;;;;;;;11.90;7.35;;;5.90;99.90;;;;;;5035566;28;20241;-74
2022/01/12 09:35:01;;;;;;;7.60;6.60;;;6.10;99.90;;;;;;5034097;28;20209;-74
2022/01/12 09:37:27;;;;;;;10.40;8.17;;;6.20;99.90;;;;;;5033914;28;20166;-74
2022/01/12 09:39:54;;;;;;;7.75;6.60;;;6.30;99.90;;;;;;5035458;28;21094;-75
2022/01/12 09:42:21;;;;;;;10.00;6.97;;;6.40;99.90;;;;;;5034967;28;20177;-74
2022/01/12 09:44:48;;;;;;;7.88;6.93;;;6.50;99.90;;;;;;5034810;28;20190;-75
2022/01/12 09:47:15;;;;;;;6.82;6.15;;;6.60;99.90;;;;;;5034802;28;20184;-75
2022/01/12 09:49:43;;;;;;;8.80;7.20;;;6.70;99.90;;;;;;5034309;28;20661;-76
2022/01/12 09:52:09;;;;;;;8.43;7.00;;;6.80;99.90;;;;;;5031717;28;21034;-75
2022/01/12 09:54:36;;;;;;;11.73;6.95;;;6.90;99.90;;;;;;5033760;28;20184;-75
2022/01/12 09:57:03;;;;;;;8.10;7.30;;;6.90;99.90;;;;;;5033951;28;20180;-75
2022/01/12 09:59:30;;;;;;;8.48;7.15;;;7.00;99.90;;;;;;5021898;28;20229;-75
2022/01/12 10:01:55;;;;;;;8.35;6.85;;;7.00;99.90;;;;;;5029528;28;20173;-76
2022/01/12 10:04:24;;;;;;;8.43;6.77;;;7.10;99.90;;;;;;5036311;28;20704;-75
2022/01/12 10:06:59;;;;;;;10.52;7.53;;;7.20;99.90;;;;;;5036023;28;21251;-75
2022/01/12 10:09:35;;;;;;;8.30;7.18;;;7.20;99.90;;;;;;5033862;28;20185;-75
2022/01/12 10:12:07;;;;;;;8.55;7.65;;;7.20;99.90;;;;;;5032594;28;20204;-74
2022/01/12 10:14:49;;;;;;;8.38;6.45;;;7.30;99.90;;;;;;5032837;28;20219;-75
2022/01/12 10:17:16;;;;;;;7.88;6.35;;;7.30;99.90;;;;;;5032921;28;20610;-75
2022/01/12 10:19:42;;;;;;;8.35;6.65;;;7.40;99.90;;;;;;5033507;28;20220;-75
2022/01/12 10:22:11;;;;;;;9.83;7.20;;;7.40;99.90;;;;;;5034020;28;20547;-75
2022/01/12 10:24:39;;;;;;;12.23;7.30;;;7.40;99.90;;;;;;5033924;28;20571;-76
2022/01/12 10:27:19;;;;;;;12.07;7.47;;;7.40;99.90;;;;;;5033856;28;20288;-76
2022/01/12 10:29:54;;;;;;;6.68;5.32;;;7.50;99.90;;;;;;5032677;28;20200;-76
2022/01/12 10:32:20;;;;;;;7.63;6.10;;;7.60;99.90;;;;;;5032719;28;20581;-75
2022/01/12 10:34:48;;;;;;;7.95;6.65;;;7.60;99.90;;;;;;5032414;28;20178;-76
2022/01/12 10:37:15;;;;;;;9.02;6.68;;;7.60;99.90;;;;;;5033942;28;20212;-75
2022/01/12 10:39:52;;;;;;;9.75;7.03;;;7.60;99.90;;;;;;5032060;28;20188;-76
2022/01/12 10:42:20;;;;;;;10.38;7.13;;;7.60;99.90;;;;;;5039161;28;20181;-75
2022/01/12 10:44:53;;;;;;;13.05;8.10;;;7.70;99.90;;;;;;5041224;28;20172;-77
2022/01/12 10:47:21;;;;;;;11.25;6.13;;;7.70;99.90;;;;;;5044180;28;20177;-75
2022/01/12 10:49:55;;;;;;;10.82;7.28;;;7.70;99.90;;;;;;5042840;28;20204;-76
2022/01/12 10:52:27;;;;;;;5.82;5.22;;;7.80;99.90;;;;;;5034319;28;20295;-76
2022/01/12 10:55:06;;;;;;;8.65;6.90;;;7.80;99.90;;;;;;5038109;28;20166;-75
2022/01/12 10:57:36;;;;;;;7.18;6.20;;;7.80;99.90;;;;;;5033580;28;20197;-75
2022/01/12 11:00:19;;;;;;;13.13;7.90;;;7.80;99.90;;;;;;5035143;28;20225;-76
2022/01/12 11:02:47;;;;;;;12.30;7.30;;;7.80;99.90;;;;;;5035252;28;20204;-75
2022/01/12 11:05:15;;;;;;;7.60;6.80;;;7.90;99.90;;;;;;5036827;28;20170;-75
2022/01/12 11:07:41;;;;;;;10.93;7.40;;;7.90;99.90;;;;;;5045491;28;20212;-75
2022/01/12 11:10:09;;;;;;;9.05;7.53;;;7.90;99.90;;;;;;5044227;28;20189;-75
2022/01/12 11:12:36;;;;;;;9.15;8.07;;;7.90;99.90;;;;;;5040540;28;20205;-76
2022/01/12 11:15:07;;;;;;;10.88;7.80;;;7.90;99.90;;;;;;5036372;28;20308;-75
2022/01/12 11:17:33;;;;;;;9.93;8.27;;;7.90;99.90;;;;;;5033768;28;20592;-76
2022/01/12 11:20:02;;;;;;;9.85;7.30;;;7.90;99.90;;;;;;5033791;28;20549;-76
2022/01/12 11:22:28;;;;;;;9.30;6.82;;;7.90;99.90;;;;;;5033465;28;20174;-75
2022/01/12 11:24:54;;;;;;;11.80;7.20;;;7.90;99.90;;;;;;5032985;28;20258;-76
2022/01/12 11:27:22;;;;;;;13.30;8.00;;;7.90;99.90;;;;;;5032005;28;20585;-76
2022/01/12 11:29:48;;;;;;;10.23;7.88;;;7.90;99.90;;;;;;5032348;28;20201;-75
2022/01/12 11:32:22;;;;;;;10.10;7.53;;;7.90;99.90;;;;;;5029855;28;20271;-75
2022/01/12 11:35:03;;;;;;;10.50;7.30;;;7.90;99.90;;;;;;5032766;28;20588;-75
2022/01/12 11:37:29;;;;;;;11.35;8.30;;;7.90;99.90;;;;;;5033057;28;20244;-76
2022/01/12 11:40:07;;;;;;;16.90;8.90;;;7.90;99.90;;;;;;5033144;28;20198;-77
2022/01/12 11:42:36;;;;;;;11.25;7.60;;;7.90;99.90;;;;;;5031238;28;20208;-76
2022/01/12 11:45:04;;;;;;;13.80;8.35;;;7.90;99.90;;;;;;5031966;28;20177;-75
2022/01/12 11:47:31;;;;;;;16.33;10.27;;;7.80;99.90;;;;;;5031031;28;20714;-75
2022/01/12 11:49:57;;;;;;;15.50;8.90;;;7.80;99.90;;;;;;5030267;28;20197;-74
2022/01/12 11:52:29;;;;;;;20.83;11.20;;;7.80;99.90;;;;;;5030896;28;20201;-75
2022/01/12 11:55:12;;;;;;;16.52;10.40;;;7.80;99.90;;;;;;5032993;28;20174;-75
2022/01/12 11:57:42;;;;;;;13.65;9.82;;;7.80;99.90;;;;;;5032826;28;20165;-75
2022/01/12 12:00:36;;;;;;;14.05;9.13;;;7.80;99.90;;;;;;5031005;28;20277;-78
2022/01/12 12:03:15;;;;;;;12.65;9.43;;;7.80;99.90;;;;;;5013673;28;20181;-76
2022/01/12 12:05:41;;;;;;;14.35;10.00;;;7.80;99.90;;;;;;5031978;28;20208;-76
2022/01/12 12:08:07;;;;;;;11.32;8.95;;;7.80;99.90;;;;;;5030654;28;20178;-76
2022/01/12 12:10:34;;;;;;;15.38;9.50;;;7.80;99.90;;;;;;5030363;28;20184;-75
2022/01/12 12:13:06;;;;;;;15.20;11.18;;;7.80;99.90;;;;;;5032149;28;20717;-75
2022/01/12 12:15:33;;;;;;;17.60;10.95;;;7.80;99.90;;;;;;5031886;28;20158;-75
2022/01/12 12:18:04;;;;;;;25.08;12.52;;;7.80;99.90;;;;;;5031809;28;20249;-76
2022/01/12 12:20:31;;;;;;;18.05;11.07;;;7.80;99.90;;;;;;5030811;28;20172;-74
2022/01/12 12:22:57;;;;;;;22.70;11.98;;;7.90;99.90;;;;;;5030898;28;20188;-74
2022/01/12 12:25:25;;;;;;;19.25;13.23;;;7.90;99.90;;;;;;5031908;28;20169;-74
2022/01/12 12:27:57;;;;;;;22.20;13.98;;;7.80;99.90;;;;;;5031547;28;20264;-76
2022/01/12 12:30:26;;;;;;;18.35;12.98;;;7.90;99.90;;;;;;5031434;28;20181;-76
2022/01/12 12:32:57;;;;;;;26.10;16.50;;;7.90;99.90;;;;;;5031781;28;20255;-76
2022/01/12 12:35:29;;;;;;;25.17;15.80;;;7.90;99.90;;;;;;5012101;28;20178;-75
2022/01/12 12:37:56;;;;;;;26.88;16.52;;;7.90;99.90;;;;;;5010449;28;20167;-76
2022/01/12 12:40:33;;;;;;;30.15;16.77;;;7.90;99.90;;;;;;5011500;28;20166;-77
2022/01/12 12:43:23;;;;;;;26.02;15.98;;;7.90;99.90;;;;;;5010386;28;20170;-77
2022/01/12 12:45:54;;;;;;;32.08;18.05;;;7.90;99.90;;;;;;5011779;28;20197;-76
2022/01/12 12:48:25;;;;;;;28.35;16.13;;;7.90;99.90;;;;;;5010556;28;20552;-76
2022/01/12 12:51:02;;;;;;;32.45;20.08;;;7.90;99.90;;;;;;5011047;28;20170;-76
2022/01/12 12:53:34;;;;;;;31.50;18.98;;;7.80;99.90;;;;;;5011726;28;20213;-76
2022/01/12 12:56:01;;;;;;;37.67;17.90;;;7.90;99.90;;;;;;5010991;28;20163;-76
2022/01/12 12:58:28;;;;;;;33.10;19.40;;;7.90;99.90;;;;;;5009950;28;20178;-76
2022/01/12 13:01:11;;;;;;;31.83;17.83;;;7.90;99.90;;;;;;5011449;28;20522;-77
2022/01/12 13:03:37;;;;;;;29.75;16.92;;;7.90;99.90;;;;;;5010587;28;20590;-77
2022/01/12 13:06:03;;;;;;;30.13;17.45;;;7.90;99.90;;;;;;5028636;28;20299;-77
2022/01/12 13:08:29;;;;;;;34.08;14.50;;;7.90;99.90;;;;;;5029527;28;20562;-77
2022/01/12 13:10:55;;;;;;;39.73;16.83;;;7.90;99.90;;;;;;5030685;28;20173;-77
2022/01/12 13:13:21;;;;;;;32.93;16.63;;;7.90;99.90;;;;;;5030862;28;20568;-77
2022/01/12 13:15:49;;;;;;;26.42;12.95;;;7.90;99.90;;;;;;5030811;28;20572;-77
2022/01/12 13:18:22;;;;;;;22.80;13.33;;;7.90;99.90;;;;;;5029425;28;20182;-77
2022/01/12 13:21:09;;;;;;;22.70;14.43;;;7.90;99.90;;;;;;5035883;28;20177;-77
2022/01/12 13:23:45;;;;;;;31.75;14.50;;;7.90;99.90;;;;;;5030867;28;20186;-77
2022/01/12 13:26:14;;;;;;;32.50;15.73;;;7.80;99.90;;;;;;5030953;28;20173;-76
2022/01/12 13:28:44;;;;;;;29.73;14.38;;;7.80;99.90;;;;;;5030606;28;20197;-76
2022/01/12 13:31:12;;;;;;;31.65;15.52;;;7.80;99.90;;;;;;5029269;28;20202;-76
2022/01/12 13:34:04;;;;;;;32.53;16.00;;;7.80;99.90;;;;;;5030637;28;20654;-76
2022/01/12 13:36:32;;;;;;;30.83;17.90;;;7.70;99.90;;;;;;5028249;28;20313;-76
2022/01/12 13:39:06;;;;;;;27.50;16.48;;;7.80;99.90;;;;;;5030518;28;20200;-76
2022/01/12 13:41:35;;;;;;;36.08;17.85;;;7.80;99.90;;;;;;5029166;28;20184;-77
2022/01/12 13:44:19;;;;;;;29.73;15.98;;;7.80;99.90;;;;;;5030326;28;20201;-77
2022/01/12 13:47:05;;;;;;;29.10;16.85;;;7.70;99.90;;;;;;5031116;28;20279;-77
2022/01/12 13:49:31;;;;;;;33.35;16.23;;;7.80;99.90;;;;;;5030597;28;20221;-77
2022/01/12 13:52:03;;;;;;;34.42;16.65;;;7.80;99.90;;;;;;5012512;28;20198;-77
2022/01/12 13:54:51;;;;;;;35.17;18.08;;;7.80;99.90;;;;;;5029112;28;20170;-77
2022/01/12 13:57:18;;;;;;;24.38;16.17;;;7.80;99.90;;;;;;5029516;28;20166;-77
2022/01/12 13:59:48;;;;;;;31.85;17.92;;;7.70;99.90;;;;;;5011996;28;20255;-77
2022/01/12 14:02:16;;;;;;;36.67;18.02;;;7.70;99.90;;;;;;5028430;28;20265;-77
2022/01/12 14:04:53;;;;;;;30.40;16.33;;;7.70;99.90;;;;;;5030272;28;20166;-76
2022/01/12 14:07:23;;;;;;;25.65;16.00;;;7.70;99.90;;;;;;5030591;28;20177;-76
2022/01/12 14:09:54;;;;;;;26.40;15.82;;;7.70;99.90;;;;;;5033432;28;20196;-75
2022/01/12 14:12:20;;;;;;;34.92;17.40;;;7.70;99.90;;;;;;5032700;28;20258;-75